Weather observations for the past three days for
Nebraska City, Nebraska City Municipal Airport
Imperial (Metric)
Date Time (cdt) Wind (mph) Vis. (mi.) Weather Sky Cond. Temperature (ºF) Relative Humidity Wind Chill (°F) Heat Index (°F) Pressure Precipitation (in)
Air Dwpt 6 hour altimeter (in) sea level (mb) 1 hr 3 hr 6 hr
Max. Min.
02 08:35 S 9 10.00 Fair CLR 77.9 64.8 64% 80 29.93 0.0
02 08:15 SW 9 0.00 NULL NULL 76.6 64.4 66% 78 29.93 0.0
02 07:35 S 9 10.00 Fair CLR 74.3 63.7 70% 29.92 0.0
02 07:15 S 8 10.00 Fair CLR 72.7 63.5 73% 29.92 0.0
02 06:55 S 9 10.00 Fair CLR 75.2 63 77 71.6 66% 77 29.92 0.0
02 06:35 SW 8 10.00 Partly Cloudy SCT120 73.4 63.1 70% 29.92 0.0
02 06:15 S 8 10.00 Mostly Cloudy BKN120 73.8 63.1 70% 29.92 0.0
02 05:55 SW 6 10.00 Mostly Cloudy BKN120 72.7 63.1 72% 29.92 0.0
02 05:35 SW 7 10.00 Partly Cloudy SCT120 72 62.8 73% 29.92 0.0
02 05:15 SW 6 10.00 Fair CLR 72.5 62.6 71% 29.91 0.0
02 04:55 SW 7 10.00 Fair CLR 73.4 62.4 69% 29.92 0.0
02 04:35 SW 9 10.00 Fair CLR 73.6 62.1 67% 29.91 0.0
02 04:15 SW 9 10.00 Fair CLR 74.3 62.1 66% 29.91 0.0
02 03:55 SW 7 10.00 Fair CLR 74.3 61.9 65% 29.92 0.0
02 03:35 SW 8 10.00 Partly Cloudy SCT120 75.4 61.7 63% 77 29.92 0.0
02 03:15 SW 9 10.00 Partly Cloudy SCT120 74.7 61.9 65% 29.91 0.0
02 02:55 SW 8 10.00 Partly Cloudy SCT120 73 62.6 70% 29.91 0.0
02 02:35 SW 8 10.00 Mostly Cloudy BKN120 73.8 62.8 69% 29.91 0.0
02 02:15 SW 8 10.00 Partly Cloudy SCT120 74.7 62.8 67% 29.91 0.0
02 01:55 SW 9 10.00 Fair CLR 75.6 62.8 65% 78 29.91 0.0
02 01:35 S 10 10.00 Fair CLR 76.1 63 64% 78 29.9 0.0
02 01:15 S 10 10.00 Fair CLR 76.5 63 63% 78 29.9 0.0
02 00:55 S 10 10.00 Fair CLR 77 63.1 90.9 77 62% 79 29.9 0.0
02 00:35 S 9 10.00 Fair CLR 77.2 63.5 63% 79 29.9 0.0
02 00:15 S 9 10.00 Fair CLR 77.9 63.5 61% 80 29.9 0.0
01 23:55 S 10 10.00 Fair CLR 77.7 63.7 62% 79 29.91 0.0
01 23:35 S 9 10.00 Fair CLR 78.3 63.7 61% 80 29.9 0.0
01 23:15 S 8 10.00 Fair CLR 79.2 63.7 59% 81 29.9 0.0
01 22:55 S 9 10.00 Fair CLR 79.9 63.5 57% 81 29.9 0.0
01 22:35 S 10 10.00 Fair CLR 80.8 63.7 56% 82 29.9 0.0
01 22:15 S 12 10.00 Fair CLR 81.5 63.9 55% 83 29.9 0.0
01 21:55 S 10 10.00 Fair CLR 82 63.9 54% 83 29.89 0.0
01 21:35 S 10 10.00 Fair CLR 82.6 64.4 54% 84 29.89 0.0
01 21:15 S 10 10.00 Fair CLR 82.8 65.3 56% 85 29.88 0.0
01 20:55 S 10 10.00 Fair CLR 83.3 66.2 56% 86 29.87 0.0
01 20:35 S 10 10.00 Fair CLR 83.7 66.9 57% 86 29.86 0.0
01 19:55 S 9 10.00 Fair CLR 85.3 68 56% 89 29.86 0.0
01 19:35 S 9 10.00 Fair CLR 86.9 67.6 53% 90 29.86 0.0
01 19:15 S 9 10.00 Fair CLR 89.6 68 49% 93 29.87 0.0
01 18:55 S 8 10.00 Fair CLR 91.2 68 97.9 91.2 47% 95 29.87 0.0
01 18:35 S 9 10.00 Fair CLR 92.8 67.8 44% 97 29.87 0.0
01 18:15 S 8 10.00 Fair CLR 94.1 68.2 43% 99 29.87 0.0
01 17:55 SW 10 G 16 10.00 Fair CLR 95.2 66.4 39% 99 29.88 0.0
01 17:35 SW 10 G 16 10.00 Fair CLR 96.1 65.3 36% 99 29.88 0.0
01 17:15 SW 12 10.00 Fair CLR 96.4 65.5 36% 100 29.88 0.0
01 16:55 SW 13 G 17 10.00 Fair CLR 97.2 64.6 34% 100 29.89 0.0
01 16:35 SW 15 G 24 10.00 Fair CLR 97.2 63 32% 99 29.89 0.0
01 16:15 SW 16 G 22 10.00 Fair CLR 97.5 64 33% 100 29.89 0.0
01 15:55 SW 14 G 23 10.00 Fair CLR 97.9 65.1 34% 101 29.89 0.0
01 15:35 SW 17 G 21 10.00 Fair CLR 97.5 64.4 34% 100 29.89 0.0
01 15:15 SW 15 G 21 10.00 Fair CLR 0 0 0% 29.9 0.0
01 14:55 SW 17 10.00 Fair CLR 96.4 65.5 36% 100 29.9 0.0
01 14:35 SW 12 10.00 Fair CLR 96.3 66.4 38% 100 29.91 0.0
01 14:15 SW 14 G 23 10.00 Fair CLR 95.5 65.3 37% 98 29.92 0.0
01 13:55 S 13 G 18 10.00 Fair CLR 94.6 67.3 41% 99 29.92 0.0
01 13:35 SW 14 G 20 10.00 Fair CLR 93.9 66.9 41% 98 29.93 0.0
01 13:15 S 13 10.00 Fair CLR 93.4 68 44% 98 29.94 0.0
01 12:55 S 12 10.00 Fair CLR 92.7 68.2 92.7 70.2 45% 97 29.94 0.0
01 12:35 S 10 10.00 Fair CLR 91.8 67.1 44% 95 29.95 0.0
01 12:15 S 9 10.00 Fair CLR 90.9 66.6 45% 94 29.95 0.0
01 11:55 SW 8 10.00 Fair CLR 90 68 48% 94 29.95 0.0
01 11:35 SW 8 10.00 Fair CLR 88.9 67.3 49% 92 29.96 0.0
01 11:15 SW 9 10.00 Fair CLR 87.8 67.1 50% 91 29.96 0.0
01 10:55 SW 8 10.00 Fair CLR 86.4 67.3 53% 89 29.96 0.0
01 10:35 SW 9 10.00 Fair CLR 85.5 66 52% 88 29.95 0.0
01 10:15 SW 10 10.00 Fair CLR 84.6 65.7 53% 87 29.95 0.0
01 09:55 SW 8 10.00 Fair CLR 83.5 65.5 55% 85 29.96 0.0
01 09:35 SW 9 10.00 Fair CLR 81.9 66.2 59% 84 29.95 0.0
01 09:15 SW 9 10.00 Fair CLR 80.2 65.3 60% 82 29.95 0.0
01 08:55 S 9 10.00 Fair CLR 78.6 65.3 64% 81 29.96 0.0
01 08:35 SW 8 10.00 Fair CLR 77 64.4 65% 79 29.96 0.0
01 08:15 S 8 10.00 Fair CLR 75 64.4 70% 77 29.96 0.0
01 07:55 S 7 10.00 Fair CLR 73.4 63.9 72% 29.96 0.0
01 07:35 S 8 10.00 Fair CLR 71.6 63.7 76% 29.95 0.0
01 07:15 S 7 10.00 Fair CLR 70.3 63.5 79% 29.95 0.0
01 06:55 S 7 10.00 Fair CLR 70.7 63.3 77.2 70.7 78% 29.94 0.0
01 06:35 S 8 10.00 Fair CLR 71.6 63.1 75% 29.94 0.0
01 06:15 SW 8 10.00 Fair CLR 71.2 63.5 77% 29.94 0.0
01 05:55 S 7 10.00 Partly Cloudy SCT110 71.6 63.9 77% 29.94 0.0
01 05:35 SW 6 10.00 Partly Cloudy SCT110 72.3 63.9 75% 29.95 0.0
01 05:15 SW 7 10.00 Fair CLR 73.6 63.5 71% 29.95 0.0
01 04:55 SW 6 10.00 Fair CLR 74.5 63.5 69% 29.95 0.0
01 04:35 SW 6 10.00 Fair CLR 74.7 63.9 69% 29.95 0.0
01 04:15 SW 7 10.00 Fair CLR 76.1 63.7 66% 78 29.95 0.0
01 03:55 SW 9 10.00 Fair CLR 77 63.7 64% 79 29.94 0.0
01 03:35 SW 10 10.00 Fair CLR 75.4 64.9 70% 77 29.94 0.0
01 03:15 S 6 10.00 Fair CLR 73.2 66.6 80% 29.94 0.0
01 02:55 S 5 10.00 Fair CLR 73 67.1 82% 29.94 0.0
01 02:35 S 5 10.00 Fair CLR 74.1 68.2 82% 29.94 0.0
01 02:15 S 5 10.00 Fair CLR 75.6 68.2 78% 77 29.94 0.0
01 01:55 S 5 10.00 Fair CLR 75.4 69.3 81% 76 29.94 0.0
01 01:35 S 3 10.00 Fair CLR 75.2 69.4 82% 76 29.94 0.0
01 01:15 S 5 10.00 Fair CLR 75.7 69.8 82% 76 29.95 0.0
01 00:55 S 5 10.00 Fair CLR 77 69.8 90.9 77 79% 79 29.95 0.0
01 00:35 S 3 10.00 Fair CLR 77.4 69.4 77% 79 29.95 0.0
01 00:15 SE 3 10.00 Fair CLR 77.7 69.8 77% 80 29.96 0.0
31 23:55 Calm 10.00 Fair CLR 78.3 69.8 75% 81 29.95 0.0
31 23:35 Calm 10.00 Fair CLR 79.7 69.8 72% 83 29.95 0.0
31 23:15 Calm 10.00 Fair CLR 79.5 70 73% 82 29.95 0.0
31 22:55 Calm 10.00 Fair CLR 80.8 69.6 69% 84 29.95 0.0
31 22:35 Calm 7.00 Fair CLR 81.1 69.4 68% 84 29.94 0.0
31 22:15 Calm 7.00 Fair CLR 81.7 69.8 67% 85 29.94 0.0
31 21:55 Calm 10.00 Fair CLR 81.5 69.4 67% 85 29.94 0.0
31 21:35 SE 6 10.00 Fair CLR 82.4 68.7 63% 86 29.94 0.0
31 21:15 SE 5 10.00 Fair CLR 83.3 68.5 61% 87 29.93 0.0
31 20:55 SE 3 10.00 Fair CLR 82.8 71.6 69% 88 29.93 0.0
31 20:35 Calm 10.00 Fair CLR 82.9 73.4 73% 89 29.92 0.0
31 20:15 Calm 10.00 Fair CLR 84.7 71.4 64% 90 29.92 0.0
31 19:55 Calm 10.00 Fair CLR 86.5 71.4 61% 92 29.92 0.0
31 19:35 Calm 10.00 Fair CLR 88.2 71.2 57% 94 29.93 0.0
31 19:15 Calm 10.00 Fair CLR 89.6 70.9 54% 96 29.93 0.0
31 18:35 Calm 10.00 Fair CLR 91.4 70.2 50% 97 29.93 0.0
31 18:15 Calm 10.00 Fair CLR 91.8 69.6 48% 97 29.93 0.0
31 17:55 SW 5 10.00 Fair CLR 91.8 70.2 49% 98 29.93 0.0
31 17:35 SW 6 10.00 Fair CLR 92.7 69.4 47% 98 29.93 0.0
31 17:15 SW 7 10.00 Fair CLR 91.2 69.1 48% 96 29.94 0.0
31 16:55 SW 7 10.00 Fair CLR 92.5 69.6 47% 98 29.94 0.0
31 16:35 SW 7 10.00 Fair CLR 93.2 69.3 46% 99 29.94 0.0
31 16:15 SW 7 10.00 Fair CLR 93.2 69.8 47% 99 29.94 0.0
31 15:55 SW 7 10.00 Fair CLR 93 68.9 45% 98 29.94 0.0
31 15:35 SW 8 10.00 Fair CLR 93 68.5 45% 98 29.94 0.0
31 15:15 SW 8 10.00 Fair CLR 92.7 71.4 50% 100 29.95 0.0
31 14:55 SW 6 10.00 Fair CLR 91.9 70 49% 98 29.95 0.0
31 14:35 SW 6 10.00 Fair CLR 91.2 69.1 48% 96 29.95 0.0
31 14:15 SW 6 10.00 Fair CLR 90 70.3 53% 96 29.96 0.0
31 13:55 W 7 10.00 Fair CLR 88.9 68.4 51% 93 29.96 0.0
31 13:35 SW 7 10.00 Fair CLR 88.3 71.8 58% 95 29.96 0.0
31 13:15 W 5 10.00 Fair CLR 87.6 69.6 55% 92 29.96 0.0
31 12:55 SW 5 10.00 Fair CLR 86.5 70.9 87.1 73.2 60% 92 29.96 0.0
31 12:35 W 6 10.00 Fair CLR 86.2 68.2 55% 90 29.96 0.0
31 12:15 NW 3 10.00 Fair CLR 85.6 68.9 57% 90 29.96 0.0
31 11:55 NW 3 10.00 Fair CLR 85.8 70.7 61% 91 29.95 0.0
31 11:35 NE 3 10.00 Fair CLR 85.3 68.7 58% 89 29.94 0.0
31 11:15 W 8 10.00 Fair CLR 84 70.5 64% 89 29.95 0.0
31 10:55 NW 8 10.00 Fair CLR 84.4 70.5 63% 89 29.95 0.0
31 10:35 W 5 10.00 Fair CLR 83.5 72 68% 89 29.92 0.0
31 10:15 N 5 10.00 Fair CLR 81.3 72 73% 86 29.89 0.0
31 09:55 N 3 10.00 Fair CLR 81.5 70.7 70% 85 29.9 0.0
31 09:35 NW 7 10.00 Fair CLR 81.3 70.9 71% 85 29.91 0.0
31 09:15 N 3 10.00 Fair CLR 79 70.5 75% 82 29.91 0.0
31 08:55 W 7 10.00 Fair CLR 77.9 69.1 74% 80 29.92 0.0
31 08:35 W 3 10.00 Fair CLR 77.7 68 72% 80 29.92 0.0
31 08:15 W 7 10.00 Fair CLR 76.1 66.4 72% 78 29.92 0.0
31 07:55 SW 6 10.00 Fair CLR 75.2 65.8 73% 77 29.91 0.0
31 07:35 SW 9 10.00 Fair CLR 75.4 65.3 71% 77 29.89 0.0
31 07:15 SW 10 10.00 Fair CLR 75.2 64.8 70% 77 29.89 0.0
31 06:55 SW 10 10.00 Thunderstorm in Vicinity CLR 73.4 65.7 77.7 73.4 77% 29.87 0.0
31 06:35 SW 8 10.00 Fair CLR 73.4 65.7 77% 29.87 0.0
31 06:15 S 9 10.00 Fair CLR 73.8 66 77% 29.87 0.0
31 05:55 SW 7 10.00 Light Rain SCT060 SCT070 SCT085 73.9 66 76% 29.87 0.0
31 05:35 SW 7 10.00 Fair CLR 74.3 65.3 74% 29.86 0.0
31 05:15 SW 8 10.00 Fair CLR 75 64.8 71% 77 29.86 0.0
31 04:55 SW 7 10.00 Fair CLR 74.8 64.9 71% 29.86 0.0
31 04:35 SW 6 10.00 Fair CLR 73.6 65.3 75% 29.85 0.0
31 04:15 SW 6 10.00 Fair CLR 74.1 64.8 73% 29.85 0.0
31 03:55 SW 7 10.00 Fair CLR 74.3 64.9 73% 29.85 0.0
31 03:35 SW 7 10.00 Fair CLR 74.1 64.9 73% 29.85 0.0
31 03:15 SW 7 10.00 Fair CLR 73.9 65.3 75% 29.84 0.0
31 02:55 SW 6 10.00 Fair CLR 75.9 64.8 68% 78 29.84 0.0
31 02:35 SW 10 10.00 Fair CLR 76.5 64.8 67% 78 29.84 0.0
31 02:15 SW 13 10.00 Fair CLR 77.5 64.8 65% 79 29.84 0.0
31 01:55 SW 14 10.00 Fair CLR 77.5 64.9 65% 79 29.84 0.0
31 01:35 S 14 10.00 Fair CLR 77 65.5 68% 79 29.84 0.0
31 01:15 SW 8 10.00 Fair CLR 76.1 66.6 72% 78 29.84 0.0
31 00:55 S 7 10.00 Fair CLR 75.4 67.8 92.3 75.2 77% 76 29.83 0.0
31 00:35 S 6 10.00 Fair CLR 76.1 69.6 80% 77 29.83 0.0
31 00:15 S 6 10.00 Fair CLR 75.6 70 83% 76 29.83 0.0
30 23:55 S 6 10.00 Fair CLR 76.6 70.3 81% 78 29.83 0.0
30 23:35 S 6 10.00 Fair CLR 78.1 70.7 78% 80 29.83 0.0
30 23:15 SW 3 10.00 Fair CLR 78.8 70.7 76% 82 29.83 0.0
30 22:55 SW 3 10.00 Fair CLR 79.7 71.1 75% 83 29.83 0.0
30 22:35 S 5 10.00 Fair CLR 81.5 70.9 70% 86 29.82 0.0
30 22:15 Calm 10.00 Fair CLR 81.3 71.6 72% 86 29.82 0.0
30 21:55 Calm 10.00 Fair CLR 83.8 72.1 68% 90 29.82 0.0
30 21:35 Calm 10.00 Fair CLR 84 72.9 69% 90 29.82 0.0
30 21:15 Calm 10.00 Fair CLR 82.8 74.5 76% 90 29.81 0.0
30 20:55 Calm 10.00 Fair CLR 84.7 74.1 71% 92 29.81 0.0
30 20:35 S 3 10.00 Fair CLR 85.8 74.3 69% 94 29.8 0.0
30 20:15 SE 3 10.00 Fair CLR 86.9 74.3 66% 96 29.8 0.0
30 19:55 SE 3 10.00 Fair CLR 88.3 74.3 63% 97 29.8 0.0
30 19:35 Calm 10.00 Fair CLR 89.8 74.5 61% 100 29.8 0.0
30 19:15 SE 3 10.00 Fair CLR 90.5 77 65% 104 29.8 0.0
30 18:55 Calm 10.00 Fair CLR 92.3 76.5 94.3 89.2 60% 105 29.8 0.0
30 18:35 Calm 10.00 Fair CLR 93.2 75.6 57% 105 29.8 0.0
30 18:15 Calm 10.00 Fair CLR 93.7 74.7 54% 105 29.79 0.0
30 17:55 Calm 10.00 Fair CLR 92.7 75 57% 104 29.79 0.0
30 17:35 Calm 10.00 Fair CLR 92.3 75.2 58% 104 29.79 0.0
30 17:15 SW 5 10.00 Fair CLR 92.7 73.4 54% 102 29.79 0.0
30 16:55 S 7 10.00 Fair CLR 91.6 72.9 54% 100 29.79 0.0
30 16:35 SW 8 10.00 Fair CLR 93.2 70.2 47% 99 29.79 0.0
30 16:15 SW 14 10.00 Fair CLR 94.1 70.5 46% 101 29.8 0.0
30 15:55 SW 10 10.00 Fair CLR 93.6 70.2 47% 100 29.81 0.0
30 15:35 SW 14 G 20 10.00 Fair CLR 93.4 70.3 47% 100 29.81 0.0
30 15:15 SW 10 10.00 Fair CLR 91.4 70.9 51% 98 29.82 0.0
30 14:55 SW 9 10.00 Fair CLR 91.4 71.1 51% 98 29.82 0.0
30 14:35 SW 13 G 17 10.00 Fair CLR 91 69.1 49% 96 29.83 0.0
30 14:15 SW 10 10.00 Fair CLR 91.6 68.9 48% 96 29.82 0.0
30 13:55 SW 14 G 20 10.00 Fair CLR 91.4 67.1 45% 95 29.83 0.0
30 13:35 SW 13 G 22 10.00 Fair CLR 91.6 68 46% 96 29.83 0.0
30 13:15 SW 16 G 20 10.00 Fair CLR 90.1 67.6 48% 94 29.84 0.0
30 12:55 SW 13 G 16 10.00 Fair CLR 90.3 69.3 90.3 72.9 50% 95 29.84 0.0
30 12:35 SW 15 G 21 10.00 Fair CLR 88.2 67.3 50% 91 29.84 0.0
30 12:15 S 13 10.00 Fair CLR 88.7 69.8 54% 94 29.85 0.0
30 11:55 S 9 10.00 Fair CLR 87.1 68.9 55% 91 29.85 0.0
30 11:35 S 13 10.00 Fair CLR 86 68.2 55% 90 29.85 0.0
30 11:15 S 8 10.00 Fair CLR 84.6 66.9 56% 87 29.85 0.0
30 10:55 SW 10 10.00 Fair CLR 84.6 66.4 55% 87 29.85 0.0
30 10:35 SW 12 10.00 Fair CLR 83.7 67.5 58% 87 29.85 0.0
30 10:15 SW 6 10.00 Fair CLR 81.5 66.6 61% 84 29.85 0.0
30 09:55 S 7 10.00 Thunderstorm in Vicinity CLR 81.7 67.1 61% 84 29.84 0.0
30 09:35 S 7 10.00 Fair CLR 79.7 67.1 65% 82 29.84 0.0
30 09:15 S 8 10.00 Fair CLR 76.1 67.6 75% 77 29.83 0.0
30 08:55 S 7 10.00 Fair CLR 76.3 67.1 73% 78 29.83 0.0
Date Time (cdt) Wind (mph) Vis. (mi.) Weather Sky Cond. Air Dwpt Max. Min. Relative Humidity Wind Chill (°F) Heat Index (°F) altimeter (in) sea level (mb) 1 hr 3 hr 6 hr
6 hour
Temperature (ºF) Pressure Precipitation (in)